< < Back
Terminal Aerodrome Forecast


Current Version              Previous Versions:   1  2  3  4  5  6  7  8  9  

Terminal Aerodrome Forecast

223
FTUS42 KGSP 071512 AAA
TAFAVL
TAF AMD
KAVL 071512Z 0715/0812 34014G22KT P6SM SKC
     FM072200 34008KT P6SM SKC
     FM080200 34004KT P6SM SCT250
     FM081000 VRB03KT P6SM BKN045=

Latest METAR

827
SAUS70 KWBC 080200
MTRAVL
METAR KAVL 080154Z 00000KT 10SM CLR 03/M07 A2992 RMK AO2 SLP139
T00331067


USA.gov is the U.S. government's official web portal to all federal, state and local government web resources and services.